sensor_id;sensor_type;location;lat;lon;timestamp;P1;P2;P0
44881;PMS5003;30612;38.304;23.786;2024-01-15T00:01:16;1.80;0.00;0.00
44881;PMS5003;30612;38.304;23.786;2024-01-15T00:03:44;6.00;1.00;0.00
44881;PMS5003;30612;38.304;23.786;2024-01-15T00:06:13;0.40;0.40;0.00
44881;PMS5003;30612;38.304;23.786;2024-01-15T00:08:41;0.00;0.00;0.00
44881;PMS5003;30612;38.304;23.786;2024-01-15T00:11:08;0.00;0.00;0.00
44881;PMS5003;30612;38.304;23.786;2024-01-15T00:13:36;0.00;0.00;0.00
44881;PMS5003;30612;38.304;23.786;2024-01-15T00:16:04;0.00;0.00;0.00
44881;PMS5003;30612;38.304;23.786;2024-01-15T00:18:31;0.00;0.00;0.00
44881;PMS5003;30612;38.304;23.786;2024-01-15T00:20:59;0.00;0.00;0.00
44881;PMS5003;30612;38.304;23.786;2024-01-15T00:23:26;1.00;1.00;0.00
44881;PMS5003;30612;38.304;23.786;2024-01-15T00:25:53;1.80;1.00;0.00
44881;PMS5003;30612;38.304;23.786;2024-01-15T00:28:21;1.00;1.00;0.00
44881;PMS5003;30612;38.304;23.786;2024-01-15T00:30:48;1.00;1.00;0.00
44881;PMS5003;30612;38.304;23.786;2024-01-15T00:33:16;3.00;0.60;0.00
44881;PMS5003;30612;38.304;23.786;2024-01-15T00:35:43;0.60;0.60;0.00
44881;PMS5003;30612;38.304;23.786;2024-01-15T00:38:10;0.80;0.80;0.00
44881;PMS5003;30612;38.304;23.786;2024-01-15T00:40:38;3.40;1.40;0.80
44881;PMS5003;30612;38.304;23.786;2024-01-15T00:43:05;3.60;1.80;1.00
44881;PMS5003;30612;38.304;23.786;2024-01-15T00:45:34;1.00;1.00;0.00
44881;PMS5003;30612;38.304;23.786;2024-01-15T00:48:01;1.00;1.00;1.00
44881;PMS5003;30612;38.304;23.786;2024-01-15T00:50:29;1.00;1.00;0.00
44881;PMS5003;30612;38.304;23.786;2024-01-15T00:52:56;1.80;1.80;0.40
44881;PMS5003;30612;38.304;23.786;2024-01-15T00:55:24;1.00;1.00;0.00
44881;PMS5003;30612;38.304;23.786;2024-01-15T00:57:51;1.40;1.00;0.00
44881;PMS5003;30612;38.304;23.786;2024-01-15T01:00:19;0.80;0.80;0.40
44881;PMS5003;30612;38.304;23.786;2024-01-15T01:02:46;2.60;2.60;0.80
44881;PMS5003;30612;38.304;23.786;2024-01-15T01:05:13;2.20;2.20;1.00
44881;PMS5003;30612;38.304;23.786;2024-01-15T01:07:41;2.60;1.00;0.00
44881;PMS5003;30612;38.304;23.786;2024-01-15T01:10:08;1.00;1.00;0.00
44881;PMS5003;30612;38.304;23.786;2024-01-15T01:12:36;1.00;1.00;0.00
44881;PMS5003;30612;38.304;23.786;2024-01-15T01:15:03;1.40;1.40;0.00
44881;PMS5003;30612;38.304;23.786;2024-01-15T01:17:31;0.20;0.20;0.00
44881;PMS5003;30612;38.304;23.786;2024-01-15T01:19:58;1.00;1.00;0.00
44881;PMS5003;30612;38.304;23.786;2024-01-15T01:22:26;0.60;0.60;0.00
44881;PMS5003;30612;38.304;23.786;2024-01-15T01:24:55;1.40;1.40;0.00
44881;PMS5003;30612;38.304;23.786;2024-01-15T01:27:22;1.00;1.00;0.60
44881;PMS5003;30612;38.304;23.786;2024-01-15T01:29:49;1.00;1.00;0.20
44881;PMS5003;30612;38.304;23.786;2024-01-15T01:32:17;1.00;1.00;0.60
44881;PMS5003;30612;38.304;23.786;2024-01-15T01:34:44;3.20;1.40;0.40
44881;PMS5003;30612;38.304;23.786;2024-01-15T01:37:12;1.40;1.40;1.00
44881;PMS5003;30612;38.304;23.786;2024-01-15T01:39:43;3.00;3.00;1.00
44881;PMS5003;30612;38.304;23.786;2024-01-15T01:42:11;1.00;1.00;1.00
44881;PMS5003;30612;38.304;23.786;2024-01-15T01:44:39;3.40;3.00;1.00
44881;PMS5003;30612;38.304;23.786;2024-01-15T01:47:06;3.60;3.60;1.00
44881;PMS5003;30612;38.304;23.786;2024-01-15T01:49:33;11.00;4.40;1.00
44881;PMS5003;30612;38.304;23.786;2024-01-15T01:52:03;1.00;1.00;0.00
44881;PMS5003;30612;38.304;23.786;2024-01-15T01:54:32;1.00;1.00;0.00
44881;PMS5003;30612;38.304;23.786;2024-01-15T01:57:01;0.20;0.20;0.00
44881;PMS5003;30612;38.304;23.786;2024-01-15T01:59:30;1.00;1.00;0.60
44881;PMS5003;30612;38.304;23.786;2024-01-15T02:01:58;0.00;0.00;0.00
44881;PMS5003;30612;38.304;23.786;2024-01-15T02:04:28;1.60;1.00;1.00
44881;PMS5003;30612;38.304;23.786;2024-01-15T02:06:55;0.40;0.40;0.00
44881;PMS5003;30612;38.304;23.786;2024-01-15T02:09:23;1.80;1.80;1.00
44881;PMS5003;30612;38.304;23.786;2024-01-15T02:11:50;2.00;1.20;0.00
44881;PMS5003;30612;38.304;23.786;2024-01-15T02:14:18;2.20;1.00;0.00
44881;PMS5003;30612;38.304;23.786;2024-01-15T02:16:45;0.00;0.00;0.00
44881;PMS5003;30612;38.304;23.786;2024-01-15T02:19:16;1.00;1.00;0.00
44881;PMS5003;30612;38.304;23.786;2024-01-15T02:21:46;2.20;2.20;1.00
44881;PMS5003;30612;38.304;23.786;2024-01-15T02:24:13;1.00;1.00;1.00
44881;PMS5003;30612;38.304;23.786;2024-01-15T02:26:41;2.60;2.60;1.00
44881;PMS5003;30612;38.304;23.786;2024-01-15T02:29:09;3.00;1.00;0.00
44881;PMS5003;30612;38.304;23.786;2024-01-15T02:31:37;3.60;3.60;1.00
44881;PMS5003;30612;38.304;23.786;2024-01-15T02:34:05;4.20;1.00;0.80
44881;PMS5003;30612;38.304;23.786;2024-01-15T02:36:32;5.20;2.60;1.00
44881;PMS5003;30612;38.304;23.786;2024-01-15T02:39:00;3.00;3.00;0.80
44881;PMS5003;30612;38.304;23.786;2024-01-15T02:41:27;2.60;2.60;1.00
44881;PMS5003;30612;38.304;23.786;2024-01-15T02:43:54;3.00;1.00;0.00
44881;PMS5003;30612;38.304;23.786;2024-01-15T02:46:21;3.20;3.20;0.60
44881;PMS5003;30612;38.304;23.786;2024-01-15T02:48:49;0.80;0.80;0.00
44881;PMS5003;30612;38.304;23.786;2024-01-15T02:51:16;1.00;1.00;0.20
44881;PMS5003;30612;38.304;23.786;2024-01-15T02:53:44;0.60;0.40;0.00
44881;PMS5003;30612;38.304;23.786;2024-01-15T02:56:12;3.60;0.80;0.40
44881;PMS5003;30612;38.304;23.786;2024-01-15T02:58:39;0.80;0.80;0.00
44881;PMS5003;30612;38.304;23.786;2024-01-15T03:01:06;3.40;3.40;1.00
44881;PMS5003;30612;38.304;23.786;2024-01-15T03:03:34;1.80;1.80;0.60
44881;PMS5003;30612;38.304;23.786;2024-01-15T03:06:02;2.20;2.20;0.60
44881;PMS5003;30612;38.304;23.786;2024-01-15T03:08:29;1.40;1.40;1.00
44881;PMS5003;30612;38.304;23.786;2024-01-15T03:10:57;1.80;1.80;0.80
44881;PMS5003;30612;38.304;23.786;2024-01-15T03:13:24;5.60;5.60;1.00
44881;PMS5003;30612;38.304;23.786;2024-01-15T03:15:51;1.40;1.40;0.80
44881;PMS5003;30612;38.304;23.786;2024-01-15T03:18:18;6.00;3.20;1.00
44881;PMS5003;30612;38.304;23.786;2024-01-15T03:20:46;6.00;4.00;2.60
44881;PMS5003;30612;38.304;23.786;2024-01-15T03:23:14;6.60;4.00;1.00
44881;PMS5003;30612;38.304;23.786;2024-01-15T03:25:41;6.00;4.00;4.00
44881;PMS5003;30612;38.304;23.786;2024-01-15T03:28:08;3.40;3.40;1.00
44881;PMS5003;30612;38.304;23.786;2024-01-15T03:30:35;1.40;1.00;1.00
44881;PMS5003;30612;38.304;23.786;2024-01-15T03:33:03;5.20;3.40;1.00
44881;PMS5003;30612;38.304;23.786;2024-01-15T03:35:30;9.20;7.40;3.20
44881;PMS5003;30612;38.304;23.786;2024-01-15T03:37:58;6.40;6.40;3.00
44881;PMS5003;30612;38.304;23.786;2024-01-15T03:40:25;6.00;6.00;3.20
44881;PMS5003;30612;38.304;23.786;2024-01-15T03:42:53;3.00;3.00;1.00
44881;PMS5003;30612;38.304;23.786;2024-01-15T03:45:21;3.00;3.00;1.00
44881;PMS5003;30612;38.304;23.786;2024-01-15T03:47:48;3.00;3.00;1.00
44881;PMS5003;30612;38.304;23.786;2024-01-15T03:50:15;2.20;1.40;0.60
44881;PMS5003;30612;38.304;23.786;2024-01-15T03:52:42;2.20;2.20;0.80
44881;PMS5003;30612;38.304;23.786;2024-01-15T03:55:10;1.00;1.00;0.60
44881;PMS5003;30612;38.304;23.786;2024-01-15T03:57:37;3.80;3.00;1.00
44881;PMS5003;30612;38.304;23.786;2024-01-15T04:00:04;6.80;3.00;1.00
44881;PMS5003;30612;38.304;23.786;2024-01-15T04:02:34;1.00;1.00;1.00
44881;PMS5003;30612;38.304;23.786;2024-01-15T04:05:01;3.00;2.60;1.00
44881;PMS5003;30612;38.304;23.786;2024-01-15T04:07:29;1.80;1.80;1.00
44881;PMS5003;30612;38.304;23.786;2024-01-15T04:09:56;1.00;0.00;0.00
44881;PMS5003;30612;38.304;23.786;2024-01-15T04:12:23;5.20;4.00;1.40
44881;PMS5003;30612;38.304;23.786;2024-01-15T04:14:51;10.40;4.80;3.00
44881;PMS5003;30612;38.304;23.786;2024-01-15T04:17:18;3.00;2.60;1.00
44881;PMS5003;30612;38.304;23.786;2024-01-15T04:19:45;1.00;1.00;0.20
44881;PMS5003;30612;38.304;23.786;2024-01-15T04:22:15;2.60;2.60;1.00
44881;PMS5003;30612;38.304;23.786;2024-01-15T04:24:42;6.80;3.00;1.00
44881;PMS5003;30612;38.304;23.786;2024-01-15T04:27:09;3.00;1.00;1.00
44881;PMS5003;30612;38.304;23.786;2024-01-15T04:29:40;1.80;1.80;0.40
44881;PMS5003;30612;38.304;23.786;2024-01-15T04:32:07;2.20;1.00;0.60
44881;PMS5003;30612;38.304;23.786;2024-01-15T04:34:34;3.00;1.00;0.00
44881;PMS5003;30612;38.304;23.786;2024-01-15T04:37:02;3.80;2.60;0.00
44881;PMS5003;30612;38.304;23.786;2024-01-15T04:39:29;0.80;0.00;0.00
44881;PMS5003;30612;38.304;23.786;2024-01-15T04:41:56;0.00;0.00;0.00
44881;PMS5003;30612;38.304;23.786;2024-01-15T04:44:24;1.00;1.00;0.00
44881;PMS5003;30612;38.304;23.786;2024-01-15T04:46:51;1.00;1.00;0.40
44881;PMS5003;30612;38.304;23.786;2024-01-15T04:49:18;1.80;1.80;1.00
44881;PMS5003;30612;38.304;23.786;2024-01-15T04:51:45;4.00;1.40;1.00
44881;PMS5003;30612;38.304;23.786;2024-01-15T04:54:13;5.60;5.60;3.00
44881;PMS5003;30612;38.304;23.786;2024-01-15T04:56:44;5.60;3.60;3.00
44881;PMS5003;30612;38.304;23.786;2024-01-15T04:59:12;9.60;5.80;3.00
44881;PMS5003;30612;38.304;23.786;2024-01-15T05:01:41;3.00;3.00;0.60
44881;PMS5003;30612;38.304;23.786;2024-01-15T05:04:08;6.00;3.00;1.00
44881;PMS5003;30612;38.304;23.786;2024-01-15T05:06:35;3.00;3.00;1.00
44881;PMS5003;30612;38.304;23.786;2024-01-15T05:09:03;4.00;3.00;1.00
44881;PMS5003;30612;38.304;23.786;2024-01-15T05:11:31;1.40;1.40;0.60
44881;PMS5003;30612;38.304;23.786;2024-01-15T05:13:58;6.40;4.00;1.00
44881;PMS5003;30612;38.304;23.786;2024-01-15T05:16:25;1.00;1.00;0.00
44881;PMS5003;30612;38.304;23.786;2024-01-15T05:18:53;3.60;1.00;0.40
44881;PMS5003;30612;38.304;23.786;2024-01-15T05:21:20;2.60;0.00;0.00
44881;PMS5003;30612;38.304;23.786;2024-01-15T05:23:47;1.80;1.80;1.00
44881;PMS5003;30612;38.304;23.786;2024-01-15T05:26:15;1.00;1.00;0.00
44881;PMS5003;30612;38.304;23.786;2024-01-15T05:28:42;3.00;3.00;0.20
44881;PMS5003;30612;38.304;23.786;2024-01-15T05:31:09;1.80;1.00;0.00
44881;PMS5003;30612;38.304;23.786;2024-01-15T05:33:38;3.00;3.00;0.00
44881;PMS5003;30612;38.304;23.786;2024-01-15T05:36:05;2.20;0.40;0.00
44881;PMS5003;30612;38.304;23.786;2024-01-15T05:38:33;1.00;1.00;0.40
44881;PMS5003;30612;38.304;23.786;2024-01-15T05:41:01;1.00;1.00;0.00
44881;PMS5003;30612;38.304;23.786;2024-01-15T05:43:28;0.00;0.00;0.00
44881;PMS5003;30612;38.304;23.786;2024-01-15T05:45:55;6.00;3.80;3.40
44881;PMS5003;30612;38.304;23.786;2024-01-15T05:48:23;9.00;7.20;3.00
44881;PMS5003;30612;38.304;23.786;2024-01-15T05:50:51;12.60;11.60;6.00
44881;PMS5003;30612;38.304;23.786;2024-01-15T05:53:18;19.00;15.40;8.20
44881;PMS5003;30612;38.304;23.786;2024-01-15T05:55:46;15.40;13.80;9.60
44881;PMS5003;30612;38.304;23.786;2024-01-15T05:58:13;34.00;27.25;14.25
44881;PMS5003;30612;38.304;23.786;2024-01-15T06:00:40;32.75;30.00;15.00
44881;PMS5003;30612;38.304;23.786;2024-01-15T06:03:08;34.00;27.25;16.00
44881;PMS5003;30612;38.304;23.786;2024-01-15T06:05:35;22.80;18.00;9.20
44881;PMS5003;30612;38.304;23.786;2024-01-15T06:08:03;17.00;16.00;7.00
44881;PMS5003;30612;38.304;23.786;2024-01-15T06:10:30;23.00;16.00;7.00
44881;PMS5003;30612;38.304;23.786;2024-01-15T06:12:57;21.40;15.00;6.80
44881;PMS5003;30612;38.304;23.786;2024-01-15T06:15:25;11.40;10.20;6.20
44881;PMS5003;30612;38.304;23.786;2024-01-15T06:17:52;13.00;10.00;5.60
44881;PMS5003;30612;38.304;23.786;2024-01-15T06:20:21;7.40;7.40;4.00
44881;PMS5003;30612;38.304;23.786;2024-01-15T06:22:48;12.20;6.80;4.80
44881;PMS5003;30612;38.304;23.786;2024-01-15T06:25:15;6.20;6.20;3.20
44881;PMS5003;30612;38.304;23.786;2024-01-15T06:27:42;5.20;4.00;3.00
44881;PMS5003;30612;38.304;23.786;2024-01-15T06:30:10;11.80;7.00;4.00
44881;PMS5003;30612;38.304;23.786;2024-01-15T06:32:38;7.00;6.80;3.00
44881;PMS5003;30612;38.304;23.786;2024-01-15T06:35:06;4.00;4.00;1.00
44881;PMS5003;30612;38.304;23.786;2024-01-15T06:37:34;6.00;6.00;3.00
44881;PMS5003;30612;38.304;23.786;2024-01-15T06:40:01;2.60;2.60;1.00
44881;PMS5003;30612;38.304;23.786;2024-01-15T06:42:29;3.40;3.40;1.00
44881;PMS5003;30612;38.304;23.786;2024-01-15T06:44:57;4.00;3.20;1.80
44881;PMS5003;30612;38.304;23.786;2024-01-15T06:47:24;4.00;3.60;1.40
44881;PMS5003;30612;38.304;23.786;2024-01-15T06:49:52;3.80;3.80;1.40
44881;PMS5003;30612;38.304;23.786;2024-01-15T06:52:19;4.00;4.00;1.00
44881;PMS5003;30612;38.304;23.786;2024-01-15T06:54:46;1.00;1.00;0.00
44881;PMS5003;30612;38.304;23.786;2024-01-15T06:57:14;3.40;1.40;1.00
44881;PMS5003;30612;38.304;23.786;2024-01-15T06:59:42;3.20;1.00;0.60
44881;PMS5003;30612;38.304;23.786;2024-01-15T07:02:09;0.20;0.20;0.00
44881;PMS5003;30612;38.304;23.786;2024-01-15T07:04:36;1.80;1.80;0.80
44881;PMS5003;30612;38.304;23.786;2024-01-15T07:07:09;0.00;0.00;0.00
44881;PMS5003;30612;38.304;23.786;2024-01-15T07:09:36;1.00;1.00;1.00
44881;PMS5003;30612;38.304;23.786;2024-01-15T07:12:03;3.20;2.60;0.80
44881;PMS5003;30612;38.304;23.786;2024-01-15T07:14:31;1.00;1.00;0.60
44881;PMS5003;30612;38.304;23.786;2024-01-15T07:16:58;1.40;1.40;0.00
44881;PMS5003;30612;38.304;23.786;2024-01-15T07:19:25;5.40;1.00;1.00
44881;PMS5003;30612;38.304;23.786;2024-01-15T07:21:53;1.40;1.40;1.00
44881;PMS5003;30612;38.304;23.786;2024-01-15T07:24:22;3.00;3.00;1.00
44881;PMS5003;30612;38.304;23.786;2024-01-15T07:26:50;0.80;0.80;0.00
44881;PMS5003;30612;38.304;23.786;2024-01-15T07:29:18;1.00;1.00;0.00
44881;PMS5003;30612;38.304;23.786;2024-01-15T07:31:51;0.80;0.80;0.40
44881;PMS5003;30612;38.304;23.786;2024-01-15T07:34:20;3.00;3.00;1.00
44881;PMS5003;30612;38.304;23.786;2024-01-15T07:36:47;9.40;4.80;3.60
44881;PMS5003;30612;38.304;23.786;2024-01-15T07:39:15;7.00;6.80;4.00
44881;PMS5003;30612;38.304;23.786;2024-01-15T07:41:43;7.40;7.40;3.60
44881;PMS5003;30612;38.304;23.786;2024-01-15T07:44:11;4.40;3.20;1.80
44881;PMS5003;30612;38.304;23.786;2024-01-15T07:46:38;6.00;5.20;2.20
44881;PMS5003;30612;38.304;23.786;2024-01-15T07:49:06;3.00;1.00;0.00
44881;PMS5003;30612;38.304;23.786;2024-01-15T07:51:33;3.00;3.00;1.80
44881;PMS5003;30612;38.304;23.786;2024-01-15T07:54:01;1.80;1.80;1.00
44881;PMS5003;30612;38.304;23.786;2024-01-15T07:56:28;3.00;2.80;1.00
44881;PMS5003;30612;38.304;23.786;2024-01-15T07:58:56;3.40;2.20;1.00
44881;PMS5003;30612;38.304;23.786;2024-01-15T08:01:25;4.00;4.00;2.20
44881;PMS5003;30612;38.304;23.786;2024-01-15T08:03:53;1.60;1.60;0.20
44881;PMS5003;30612;38.304;23.786;2024-01-15T08:06:22;2.40;2.40;1.00
44881;PMS5003;30612;38.304;23.786;2024-01-15T08:08:49;2.00;1.00;0.00
44881;PMS5003;30612;38.304;23.786;2024-01-15T08:11:17;5.00;5.00;1.60
44881;PMS5003;30612;38.304;23.786;2024-01-15T08:13:44;0.80;0.80;0.00
44881;PMS5003;30612;38.304;23.786;2024-01-15T08:16:11;4.00;4.00;2.00
44881;PMS5003;30612;38.304;23.786;2024-01-15T08:18:40;7.00;2.40;1.60
44881;PMS5003;30612;38.304;23.786;2024-01-15T08:21:09;1.20;1.00;1.00
44881;PMS5003;30612;38.304;23.786;2024-01-15T08:23:36;0.60;0.40;0.00
44881;PMS5003;30612;38.304;23.786;2024-01-15T08:26:03;2.00;1.00;0.00
44881;PMS5003;30612;38.304;23.786;2024-01-15T08:28:31;1.00;0.80;0.00
44881;PMS5003;30612;38.304;23.786;2024-01-15T08:30:58;5.00;1.00;0.00
44881;PMS5003;30612;38.304;23.786;2024-01-15T08:33:26;1.20;1.00;0.00
44881;PMS5003;30612;38.304;23.786;2024-01-15T08:35:54;2.00;2.00;1.00
44881;PMS5003;30612;38.304;23.786;2024-01-15T08:38:21;1.80;1.80;0.40
44881;PMS5003;30612;38.304;23.786;2024-01-15T08:40:49;6.00;4.00;2.00
44881;PMS5003;30612;38.304;23.786;2024-01-15T08:43:16;2.40;2.00;1.00
44881;PMS5003;30612;38.304;23.786;2024-01-15T08:45:44;1.80;1.00;0.00
44881;PMS5003;30612;38.304;23.786;2024-01-15T08:48:11;2.00;1.40;1.00
44881;PMS5003;30612;38.304;23.786;2024-01-15T08:50:39;2.40;1.00;1.00
44881;PMS5003;30612;38.304;23.786;2024-01-15T08:53:06;2.00;2.00;1.00
44881;PMS5003;30612;38.304;23.786;2024-01-15T08:55:34;1.60;1.60;0.80
44881;PMS5003;30612;38.304;23.786;2024-01-15T08:58:01;2.80;2.80;1.60
44881;PMS5003;30612;38.304;23.786;2024-01-15T09:00:28;4.20;4.20;2.20
44881;PMS5003;30612;38.304;23.786;2024-01-15T09:02:56;2.60;2.40;1.00
44881;PMS5003;30612;38.304;23.786;2024-01-15T09:05:23;5.00;4.00;2.00
44881;PMS5003;30612;38.304;23.786;2024-01-15T09:07:51;2.80;2.00;1.00
44881;PMS5003;30612;38.304;23.786;2024-01-15T09:10:19;4.00;4.00;2.00
44881;PMS5003;30612;38.304;23.786;2024-01-15T09:12:46;3.60;2.00;2.00
44881;PMS5003;30612;38.304;23.786;2024-01-15T09:15:14;1.60;1.40;0.60
44881;PMS5003;30612;38.304;23.786;2024-01-15T09:17:41;1.80;1.80;0.00
44881;PMS5003;30612;38.304;23.786;2024-01-15T09:20:09;4.20;3.60;2.00
44881;PMS5003;30612;38.304;23.786;2024-01-15T09:22:40;2.00;2.00;1.00
44881;PMS5003;30612;38.304;23.786;2024-01-15T09:25:08;0.80;0.80;0.60
44881;PMS5003;30612;38.304;23.786;2024-01-15T09:27:36;2.00;2.00;1.00
44881;PMS5003;30612;38.304;23.786;2024-01-15T09:30:04;1.00;1.00;1.00
44881;PMS5003;30612;38.304;23.786;2024-01-15T09:32:33;2.00;2.00;0.60
44881;PMS5003;30612;38.304;23.786;2024-01-15T09:35:00;1.40;1.40;0.00
44881;PMS5003;30612;38.304;23.786;2024-01-15T09:37:27;2.20;1.00;0.00
44881;PMS5003;30612;38.304;23.786;2024-01-15T09:40:13;1.80;1.80;0.60
44881;PMS5003;30612;38.304;23.786;2024-01-15T09:42:44;1.00;1.00;0.00
44881;PMS5003;30612;38.304;23.786;2024-01-15T09:45:12;1.00;1.00;0.20
44881;PMS5003;30612;38.304;23.786;2024-01-15T09:47:40;1.00;1.00;0.00
44881;PMS5003;30612;38.304;23.786;2024-01-15T09:50:12;3.60;3.60;1.00
44881;PMS5003;30612;38.304;23.786;2024-01-15T09:52:43;4.00;4.00;1.00
44881;PMS5003;30612;38.304;23.786;2024-01-15T09:55:11;2.80;1.80;1.00
44881;PMS5003;30612;38.304;23.786;2024-01-15T09:57:40;1.00;1.00;0.40
44881;PMS5003;30612;38.304;23.786;2024-01-15T10:00:08;1.20;1.20;0.20
44881;PMS5003;30612;38.304;23.786;2024-01-15T10:02:38;1.00;1.00;1.00
44881;PMS5003;30612;38.304;23.786;2024-01-15T10:05:05;4.20;4.00;2.00
44881;PMS5003;30612;38.304;23.786;2024-01-15T10:07:34;1.60;1.60;1.00
44881;PMS5003;30612;38.304;23.786;2024-01-15T10:10:03;1.00;1.00;0.00
44881;PMS5003;30612;38.304;23.786;2024-01-15T10:12:31;4.60;4.60;2.00
44881;PMS5003;30612;38.304;23.786;2024-01-15T10:14:59;16.20;15.20;8.60
44881;PMS5003;30612;38.304;23.786;2024-01-15T10:17:27;15.00;9.80;6.00
44881;PMS5003;30612;38.304;23.786;2024-01-15T10:19:55;12.60;8.00;5.00
44881;PMS5003;30612;38.304;23.786;2024-01-15T10:22:23;9.60;7.80;4.40
44881;PMS5003;30612;38.304;23.786;2024-01-15T10:24:51;4.20;4.00;1.00
44881;PMS5003;30612;38.304;23.786;2024-01-15T10:27:18;4.00;4.00;2.00
44881;PMS5003;30612;38.304;23.786;2024-01-15T10:29:46;2.80;2.80;1.00
44881;PMS5003;30612;38.304;23.786;2024-01-15T10:32:13;2.00;1.20;0.80
44881;PMS5003;30612;38.304;23.786;2024-01-15T10:34:41;3.60;2.00;1.00
44881;PMS5003;30612;38.304;23.786;2024-01-15T10:37:10;4.80;4.00;1.40
44881;PMS5003;30612;38.304;23.786;2024-01-15T10:39:38;5.00;2.00;1.00
44881;PMS5003;30612;38.304;23.786;2024-01-15T10:42:06;6.40;5.80;3.60
44881;PMS5003;30612;38.304;23.786;2024-01-15T10:44:34;9.20;6.00;3.20
44881;PMS5003;30612;38.304;23.786;2024-01-15T10:47:02;5.80;5.60;4.00
44881;PMS5003;30612;38.304;23.786;2024-01-15T10:49:29;8.00;5.80;2.00
44881;PMS5003;30612;38.304;23.786;2024-01-15T10:52:02;3.20;3.20;2.00
44881;PMS5003;30612;38.304;23.786;2024-01-15T10:54:31;1.00;1.00;0.00
44881;PMS5003;30612;38.304;23.786;2024-01-15T10:56:59;8.20;5.00;2.00
44881;PMS5003;30612;38.304;23.786;2024-01-15T10:59:26;1.20;1.20;1.00
44881;PMS5003;30612;38.304;23.786;2024-01-15T11:01:54;3.80;2.40;1.20
44881;PMS5003;30612;38.304;23.786;2024-01-15T11:04:22;4.00;4.00;2.00
44881;PMS5003;30612;38.304;23.786;2024-01-15T11:06:52;8.20;6.40;4.00
44881;PMS5003;30612;38.304;23.786;2024-01-15T11:09:23;22.20;19.40;11.80
44881;PMS5003;30612;38.304;23.786;2024-01-15T11:11:52;16.80;16.40;10.20
44881;PMS5003;30612;38.304;23.786;2024-01-15T11:14:40;13.80;11.40;6.00
44881;PMS5003;30612;38.304;23.786;2024-01-15T11:17:11;10.20;8.00;4.20
44881;PMS5003;30612;38.304;23.786;2024-01-15T11:19:44;9.80;8.00;5.00
44881;PMS5003;30612;38.304;23.786;2024-01-15T11:25:01;15.00;10.60;5.00
44881;PMS5003;30612;38.304;23.786;2024-01-15T11:30:11;12.00;12.00;7.20
44881;PMS5003;30612;38.304;23.786;2024-01-15T11:32:40;13.40;10.60;5.00
44881;PMS5003;30612;38.304;23.786;2024-01-15T11:35:10;9.60;9.40;6.40
44881;PMS5003;30612;38.304;23.786;2024-01-15T11:40:19;2.40;2.40;1.40
44881;PMS5003;30612;38.304;23.786;2024-01-15T11:42:47;5.00;5.00;2.00
44881;PMS5003;30612;38.304;23.786;2024-01-15T11:45:18;4.80;4.00;2.00
44881;PMS5003;30612;38.304;23.786;2024-01-15T11:50:32;2.40;2.40;1.00
44881;PMS5003;30612;38.304;23.786;2024-01-15T11:53:01;2.00;2.00;1.00
44881;PMS5003;30612;38.304;23.786;2024-01-15T11:55:38;1.80;1.80;1.00
44881;PMS5003;30612;38.304;23.786;2024-01-15T11:58:07;4.60;3.20;2.00
44881;PMS5003;30612;38.304;23.786;2024-01-15T12:00:40;2.00;2.00;1.00
44881;PMS5003;30612;38.304;23.786;2024-01-15T12:03:09;5.00;5.00;2.00
44881;PMS5003;30612;38.304;23.786;2024-01-15T12:05:37;4.80;4.80;2.00
44881;PMS5003;30612;38.304;23.786;2024-01-15T12:08:05;4.80;4.80;1.40
44881;PMS5003;30612;38.304;23.786;2024-01-15T12:10:38;2.00;2.00;0.80
44881;PMS5003;30612;38.304;23.786;2024-01-15T12:13:12;3.60;1.60;1.00
44881;PMS5003;30612;38.304;23.786;2024-01-15T12:15:41;5.00;5.00;1.20
44881;PMS5003;30612;38.304;23.786;2024-01-15T12:18:11;1.20;1.20;0.60
44881;PMS5003;30612;38.304;23.786;2024-01-15T12:20:40;4.60;2.60;1.00
44881;PMS5003;30612;38.304;23.786;2024-01-15T12:23:09;0.80;0.80;0.40
44881;PMS5003;30612;38.304;23.786;2024-01-15T12:25:37;1.60;1.60;1.00
44881;PMS5003;30612;38.304;23.786;2024-01-15T12:28:05;1.20;1.20;1.00
44881;PMS5003;30612;38.304;23.786;2024-01-15T12:30:33;1.40;1.40;1.00
44881;PMS5003;30612;38.304;23.786;2024-01-15T12:33:04;2.00;1.20;0.20
44881;PMS5003;30612;38.304;23.786;2024-01-15T12:35:35;1.60;1.60;1.00
44881;PMS5003;30612;38.304;23.786;2024-01-15T12:38:03;1.00;1.00;0.00
44881;PMS5003;30612;38.304;23.786;2024-01-15T12:40:31;5.60;2.00;1.00
44881;PMS5003;30612;38.304;23.786;2024-01-15T12:43:03;5.00;5.00;4.20
44881;PMS5003;30612;38.304;23.786;2024-01-15T12:45:32;8.80;4.80;3.00
44881;PMS5003;30612;38.304;23.786;2024-01-15T12:48:02;4.20;4.20;2.00
44881;PMS5003;30612;38.304;23.786;2024-01-15T12:50:31;4.80;4.40;2.00
44881;PMS5003;30612;38.304;23.786;2024-01-15T12:53:00;3.40;3.40;1.80
44881;PMS5003;30612;38.304;23.786;2024-01-15T12:55:28;1.60;1.60;1.00
44881;PMS5003;30612;38.304;23.786;2024-01-15T12:57:55;4.00;1.00;1.00
44881;PMS5003;30612;38.304;23.786;2024-01-15T13:00:23;5.00;3.40;1.60
44881;PMS5003;30612;38.304;23.786;2024-01-15T13:02:52;10.00;7.80;4.00
44881;PMS5003;30612;38.304;23.786;2024-01-15T13:05:21;12.20;9.40;5.80
44881;PMS5003;30612;38.304;23.786;2024-01-15T13:07:50;12.80;5.80;3.00
44881;PMS5003;30612;38.304;23.786;2024-01-15T13:10:17;11.20;9.40;6.00
44881;PMS5003;30612;38.304;23.786;2024-01-15T13:12:44;20.40;16.00;9.00
44881;PMS5003;30612;38.304;23.786;2024-01-15T13:15:12;15.00;15.00;9.60
44881;PMS5003;30612;38.304;23.786;2024-01-15T13:17:41;7.60;7.60;5.00
44881;PMS5003;30612;38.304;23.786;2024-01-15T13:20:10;8.00;5.80;3.20
44881;PMS5003;30612;38.304;23.786;2024-01-15T13:22:39;7.80;7.80;4.80
44881;PMS5003;30612;38.304;23.786;2024-01-15T13:25:07;3.00;2.00;1.00
44881;PMS5003;30612;38.304;23.786;2024-01-15T13:27:35;4.60;4.60;2.80
44881;PMS5003;30612;38.304;23.786;2024-01-15T13:30:06;4.00;4.00;2.00
44881;PMS5003;30612;38.304;23.786;2024-01-15T13:32:35;3.20;3.20;1.40
44881;PMS5003;30612;38.304;23.786;2024-01-15T13:35:03;7.20;5.20;1.40
44881;PMS5003;30612;38.304;23.786;2024-01-15T13:37:32;4.40;1.60;1.00
44881;PMS5003;30612;38.304;23.786;2024-01-15T13:40:00;5.20;4.00;2.00
44881;PMS5003;30612;38.304;23.786;2024-01-15T13:42:27;6.80;5.60;2.00
44881;PMS5003;30612;38.304;23.786;2024-01-15T13:44:55;6.40;4.00;2.00
44881;PMS5003;30612;38.304;23.786;2024-01-15T13:47:22;8.20;5.80;4.20
44881;PMS5003;30612;38.304;23.786;2024-01-15T13:49:51;5.00;5.00;2.00
44881;PMS5003;30612;38.304;23.786;2024-01-15T13:52:18;6.40;6.40;2.80
44881;PMS5003;30612;38.304;23.786;2024-01-15T13:54:45;7.00;6.40;4.00
44881;PMS5003;30612;38.304;23.786;2024-01-15T13:57:16;9.20;9.20;4.00
44881;PMS5003;30612;38.304;23.786;2024-01-15T13:59:45;8.00;8.00;4.20
44881;PMS5003;30612;38.304;23.786;2024-01-15T14:02:12;5.80;5.20;2.00
44881;PMS5003;30612;38.304;23.786;2024-01-15T14:04:46;8.60;7.60;4.00
44881;PMS5003;30612;38.304;23.786;2024-01-15T14:07:17;1.00;1.00;0.00
44881;PMS5003;30612;38.304;23.786;2024-01-15T14:09:44;4.00;4.00;2.00
44881;PMS5003;30612;38.304;23.786;2024-01-15T14:12:12;4.00;4.00;2.00
44881;PMS5003;30612;38.304;23.786;2024-01-15T14:14:39;2.40;2.40;1.00
44881;PMS5003;30612;38.304;23.786;2024-01-15T14:17:07;4.20;4.20;1.00
44881;PMS5003;30612;38.304;23.786;2024-01-15T14:19:35;4.20;4.00;1.40
44881;PMS5003;30612;38.304;23.786;2024-01-15T14:22:03;3.60;2.00;1.00
44881;PMS5003;30612;38.304;23.786;2024-01-15T14:24:30;2.00;2.00;1.00